Time;durP1;ratioP1;P1;durP2;ratioP2;P2;SDS_P1;SDS_P2;PMS_P1;PMS_P2;Temp;Humidity;BMP_temperature;BMP_pressure;BME280_temperature;BME280_humidity;BME280_pressure;Samples;Min_cycle;Max_cycle;Signal;HPM_P1;HPM_P2
2021/05/22 00:01:05;;;;;;;9.48;2.00;;;12.40;98.80;;;;;;4986938;28;20051;-67
2021/05/22 00:03:31;;;;;;;8.38;1.98;;;12.40;99.10;;;;;;4986115;28;20100;-68
2021/05/22 00:05:57;;;;;;;10.93;1.45;;;12.40;98.90;;;;;;4986380;28;20050;-67
2021/05/22 00:08:23;;;;;;;8.40;2.58;;;12.60;99.00;;;;;;4985206;28;20055;-67
2021/05/22 00:10:49;;;;;;;6.43;1.33;;;12.70;99.00;;;;;;4986639;28;20078;-68
2021/05/22 00:13:15;;;;;;;5.82;1.38;;;12.80;98.90;;;;;;4986233;28;20043;-68
2021/05/22 00:15:45;;;;;;;7.00;1.70;;;12.60;99.40;;;;;;4986354;28;20074;-67
2021/05/22 00:18:11;;;;;;;6.00;1.60;;;12.50;99.80;;;;;;4986911;28;20057;-68
2021/05/22 00:20:38;;;;;;;8.63;2.00;;;12.50;99.90;;;;;;4987041;28;20108;-67
2021/05/22 00:23:04;;;;;;;6.40;1.63;;;12.60;99.90;;;;;;4966547;28;20106;-67
2021/05/22 00:25:30;;;;;;;5.70;1.40;;;12.40;99.90;;;;;;4980543;28;20062;-68
2021/05/22 00:27:56;;;;;;;7.35;1.42;;;12.50;99.90;;;;;;4985924;28;20073;-68
2021/05/22 00:30:22;;;;;;;6.80;1.80;;;12.40;99.90;;;;;;4991605;28;20050;-67
2021/05/22 00:32:48;;;;;;;8.27;1.92;;;12.30;99.90;;;;;;4974048;28;20054;-67
2021/05/22 00:35:14;;;;;;;6.75;1.55;;;12.30;99.90;;;;;;4984889;28;20232;-67
2021/05/22 00:37:40;;;;;;;9.45;1.48;;;12.30;99.90;;;;;;4985880;28;20045;-67
2021/05/22 00:40:07;;;;;;;4.88;1.30;;;12.30;99.90;;;;;;4986777;28;20043;-67
2021/05/22 00:42:36;;;;;;;9.73;1.70;;;12.30;99.90;;;;;;4985661;28;20047;-68
2021/05/22 00:45:23;;;;;;;7.78;2.05;;;12.40;99.90;;;;;;4986313;28;20047;-67
2021/05/22 00:47:51;;;;;;;7.40;1.60;;;12.40;99.90;;;;;;4986624;28;20051;-67
2021/05/22 00:50:29;;;;;;;8.32;1.85;;;12.20;99.90;;;;;;4986732;28;20058;-66
2021/05/22 00:52:55;;;;;;;9.68;1.42;;;12.20;99.90;;;;;;4984465;28;20046;-66
2021/05/22 00:55:22;;;;;;;7.75;1.30;;;12.20;99.90;;;;;;4986613;28;20074;-66
2021/05/22 00:57:48;;;;;;;8.07;2.00;;;12.30;99.90;;;;;;4985870;28;20055;-66
2021/05/22 01:00:18;;;;;;;5.80;1.85;;;12.20;99.90;;;;;;4985831;28;20057;-68
2021/05/22 01:02:45;;;;;;;6.13;1.63;;;12.20;99.90;;;;;;4985929;28;20057;-68
2021/05/22 01:05:12;;;;;;;8.30;1.20;;;12.10;99.90;;;;;;4985860;28;20460;-68
2021/05/22 01:07:38;;;;;;;6.93;1.60;;;12.10;99.90;;;;;;4985433;28;20073;-68
2021/05/22 01:10:06;;;;;;;11.13;1.60;;;12.10;99.90;;;;;;4985571;28;20051;-67
2021/05/22 01:12:36;;;;;;;6.38;1.88;;;12.10;99.90;;;;;;4985405;28;20419;-67
2021/05/22 01:15:14;;;;;;;5.40;1.48;;;12.00;99.90;;;;;;4985233;28;20050;-67
2021/05/22 01:17:46;;;;;;;8.38;2.15;;;12.00;99.90;;;;;;4985560;28;20050;-68
2021/05/22 01:20:24;;;;;;;6.90;1.63;;;12.00;99.90;;;;;;4986290;28;20204;-68
2021/05/22 01:22:53;;;;;;;7.78;1.35;;;12.10;99.90;;;;;;4985707;28;20046;-68
2021/05/22 01:25:37;;;;;;;8.07;1.90;;;12.10;99.90;;;;;;4985377;28;20049;-68
2021/05/22 01:28:07;;;;;;;5.53;1.50;;;12.10;99.90;;;;;;4985537;28;20134;-68
2021/05/22 01:30:34;;;;;;;10.10;1.67;;;12.20;99.90;;;;;;4978636;28;20054;-67
2021/05/22 01:33:01;;;;;;;9.60;1.80;;;12.10;99.90;;;;;;4986802;28;20050;-67
2021/05/22 01:35:27;;;;;;;11.10;1.85;;;12.00;99.90;;;;;;4989067;28;20051;-66
2021/05/22 01:37:53;;;;;;;4.88;1.38;;;12.10;99.90;;;;;;4988950;28;20478;-66
2021/05/22 01:40:18;;;;;;;5.55;1.33;;;12.10;99.90;;;;;;4988087;28;20070;-68
2021/05/22 01:42:44;;;;;;;6.32;1.20;;;12.10;99.90;;;;;;4989248;28;20046;-68
2021/05/22 01:45:16;;;;;;;8.95;1.55;;;12.10;99.90;;;;;;4990076;28;20054;-68
2021/05/22 01:47:45;;;;;;;6.43;2.42;;;12.20;99.90;;;;;;4989304;28;20050;-68
2021/05/22 01:50:15;;;;;;;3.95;1.45;;;12.20;99.90;;;;;;4989043;28;20050;-68
2021/05/22 01:52:44;;;;;;;5.68;1.50;;;12.10;99.90;;;;;;4988758;28;20053;-67
2021/05/22 01:55:13;;;;;;;5.75;1.65;;;12.00;99.90;;;;;;4988963;28;20042;-67
2021/05/22 01:57:39;;;;;;;8.23;2.47;;;12.20;99.90;;;;;;4988407;28;20057;-67
2021/05/22 02:00:10;;;;;;;6.15;2.13;;;12.10;99.90;;;;;;4988936;28;20051;-67
2021/05/22 02:02:36;;;;;;;7.85;1.75;;;12.00;99.90;;;;;;4988545;28;20499;-67
2021/05/22 02:05:04;;;;;;;5.22;1.80;;;11.90;99.90;;;;;;4988659;28;20053;-68
2021/05/22 02:07:31;;;;;;;4.43;1.40;;;11.90;99.90;;;;;;4989464;28;20074;-67
2021/05/22 02:09:59;;;;;;;4.10;1.30;;;12.00;99.90;;;;;;4988225;28;20034;-67
2021/05/22 02:12:27;;;;;;;6.00;1.90;;;11.90;99.90;;;;;;4988292;28;20054;-67
2021/05/22 02:14:54;;;;;;;6.45;2.05;;;11.90;99.90;;;;;;4971785;28;20078;-67
2021/05/22 02:17:23;;;;;;;8.05;1.58;;;11.90;99.90;;;;;;4988310;28;20050;-68
2021/05/22 02:19:51;;;;;;;5.65;1.83;;;11.90;99.90;;;;;;4988114;28;20046;-68
2021/05/22 02:22:22;;;;;;;5.90;1.50;;;12.00;99.90;;;;;;4988078;28;20047;-68
2021/05/22 02:24:52;;;;;;;7.45;1.90;;;11.90;99.90;;;;;;4988224;28;20047;-68
2021/05/22 02:27:20;;;;;;;4.10;1.30;;;11.90;99.90;;;;;;4988211;28;20515;-68
2021/05/22 02:29:47;;;;;;;8.75;1.77;;;11.90;99.90;;;;;;4998027;28;20133;-68
2021/05/22 02:32:15;;;;;;;6.00;1.50;;;11.80;99.90;;;;;;4970952;28;20058;-68
2021/05/22 02:34:51;;;;;;;3.55;1.70;;;11.80;99.90;;;;;;4988068;28;20106;-68
2021/05/22 02:37:19;;;;;;;7.85;1.77;;;11.80;99.90;;;;;;4988013;28;20047;-68
2021/05/22 02:39:50;;;;;;;6.38;1.33;;;11.80;99.90;;;;;;4988142;28;20043;-68
2021/05/22 02:42:18;;;;;;;5.70;1.40;;;11.60;99.90;;;;;;4988203;28;20050;-68
2021/05/22 02:44:47;;;;;;;8.90;2.13;;;11.50;99.90;;;;;;4987671;28;20035;-68
2021/05/22 02:47:13;;;;;;;8.57;1.97;;;11.50;99.90;;;;;;4988831;28;20057;-66
2021/05/22 02:49:42;;;;;;;5.05;1.60;;;11.40;99.90;;;;;;4988741;28;20062;-67
2021/05/22 02:52:12;;;;;;;8.50;1.67;;;11.40;99.90;;;;;;4988655;28;20047;-67
2021/05/22 02:54:41;;;;;;;8.85;2.45;;;11.40;99.90;;;;;;4988181;28;20059;-67
2021/05/22 02:57:11;;;;;;;7.90;1.85;;;11.50;99.90;;;;;;4987696;28;20050;-67
2021/05/22 02:59:38;;;;;;;4.60;1.90;;;11.50;99.90;;;;;;4986977;28;20571;-67
2021/05/22 03:02:05;;;;;;;5.70;1.48;;;11.60;99.90;;;;;;4988097;28;20047;-67
2021/05/22 03:04:32;;;;;;;4.30;1.30;;;11.60;99.90;;;;;;4988727;28;20046;-67
2021/05/22 03:07:02;;;;;;;7.00;2.10;;;11.40;99.90;;;;;;4988424;28;20038;-67
2021/05/22 03:09:28;;;;;;;7.70;1.92;;;11.50;99.90;;;;;;4974697;28;20046;-67
2021/05/22 03:11:55;;;;;;;5.82;1.75;;;11.50;99.90;;;;;;4987271;28;20051;-68
2021/05/22 03:14:21;;;;;;;10.70;1.40;;;11.60;99.90;;;;;;4986952;28;20492;-67
2021/05/22 03:16:47;;;;;;;4.00;1.30;;;11.60;99.90;;;;;;4987429;28;20047;-67
2021/05/22 03:19:13;;;;;;;6.82;1.55;;;11.50;99.90;;;;;;4987083;28;20117;-67
2021/05/22 03:21:39;;;;;;;6.25;1.95;;;11.50;99.90;;;;;;4975477;28;20056;-67
2021/05/22 03:24:06;;;;;;;6.85;1.67;;;11.40;99.90;;;;;;4985345;28;20104;-67
2021/05/22 03:26:32;;;;;;;4.90;1.15;;;11.40;99.90;;;;;;4987882;28;20111;-67
2021/05/22 03:28:58;;;;;;;6.10;1.52;;;11.50;99.90;;;;;;4988778;28;20051;-66
2021/05/22 03:31:24;;;;;;;5.03;1.75;;;11.50;99.90;;;;;;4986158;28;20062;-67
2021/05/22 03:33:50;;;;;;;6.75;1.50;;;11.50;99.90;;;;;;4987862;28;20043;-68
2021/05/22 03:36:15;;;;;;;4.90;1.60;;;11.40;99.90;;;;;;4987362;28;20050;-66
2021/05/22 03:38:41;;;;;;;5.63;1.33;;;11.40;99.90;;;;;;4986896;28;20046;-66
2021/05/22 03:41:07;;;;;;;4.30;1.98;;;11.50;99.90;;;;;;4987418;28;20057;-66
2021/05/22 03:43:33;;;;;;;7.07;1.50;;;11.30;99.90;;;;;;4987872;28;20609;-66
2021/05/22 03:45:59;;;;;;;7.60;1.80;;;11.30;99.90;;;;;;4987140;28;20114;-66
2021/05/22 03:48:25;;;;;;;5.85;1.80;;;11.30;99.90;;;;;;4987392;28;20051;-67
2021/05/22 03:50:51;;;;;;;6.57;1.50;;;11.40;99.90;;;;;;4986489;28;20054;-67
2021/05/22 03:53:17;;;;;;;4.13;1.20;;;11.30;99.90;;;;;;4985335;28;20046;-66
2021/05/22 03:55:43;;;;;;;4.93;1.20;;;11.20;99.90;;;;;;4986103;28;20053;-67
2021/05/22 03:58:12;;;;;;;5.13;1.45;;;11.10;99.90;;;;;;4986425;28;20039;-66
2021/05/22 04:00:38;;;;;;;5.82;2.22;;;11.10;99.90;;;;;;4986740;28;20069;-66
2021/05/22 04:03:05;;;;;;;4.57;1.40;;;11.00;99.90;;;;;;4987026;28;20069;-67
2021/05/22 04:05:31;;;;;;;4.78;1.65;;;11.00;99.90;;;;;;4986538;28;20051;-67
2021/05/22 04:07:57;;;;;;;8.50;1.58;;;11.00;99.90;;;;;;4986352;28;20057;-67
2021/05/22 04:10:23;;;;;;;5.03;1.27;;;10.90;99.90;;;;;;4986235;28;20035;-67
2021/05/22 04:12:49;;;;;;;5.68;2.03;;;10.80;99.90;;;;;;4985686;28;20046;-66
2021/05/22 04:15:15;;;;;;;5.45;1.85;;;10.80;99.90;;;;;;4986147;28;20042;-67
2021/05/22 04:17:41;;;;;;;6.72;1.60;;;10.90;99.90;;;;;;4986445;28;20510;-67
2021/05/22 04:20:07;;;;;;;6.63;1.50;;;10.90;99.90;;;;;;4986729;28;20135;-68
2021/05/22 04:22:33;;;;;;;7.68;1.80;;;10.90;99.90;;;;;;4986904;28;20050;-68
2021/05/22 04:24:58;;;;;;;7.95;1.85;;;10.90;99.90;;;;;;4987255;28;20034;-68
2021/05/22 04:27:24;;;;;;;4.22;1.50;;;10.90;99.90;;;;;;4986548;28;20142;-68
2021/05/22 04:29:50;;;;;;;6.35;1.63;;;10.90;99.90;;;;;;4996762;28;20042;-68
2021/05/22 04:32:16;;;;;;;4.63;1.50;;;10.80;99.90;;;;;;4986135;28;20046;-67
2021/05/22 04:34:42;;;;;;;5.82;1.38;;;10.80;99.90;;;;;;4986569;28;20066;-68
2021/05/22 04:37:08;;;;;;;4.80;1.60;;;10.70;99.90;;;;;;4986464;28;20075;-67
2021/05/22 04:39:34;;;;;;;7.43;1.92;;;10.70;99.90;;;;;;4985746;28;20050;-67
2021/05/22 04:41:59;;;;;;;3.55;1.70;;;10.70;99.90;;;;;;4985511;28;20057;-68
2021/05/22 04:44:25;;;;;;;7.10;1.98;;;10.70;99.90;;;;;;4985938;28;20051;-68
2021/05/22 04:46:51;;;;;;;6.82;2.20;;;10.60;99.90;;;;;;4984680;28;20106;-68
2021/05/22 04:49:17;;;;;;;5.15;1.77;;;10.60;99.90;;;;;;4968625;28;20046;-67
2021/05/22 04:51:45;;;;;;;8.88;1.90;;;10.50;99.90;;;;;;4986085;28;20051;-68
2021/05/22 04:54:11;;;;;;;5.05;1.50;;;10.60;99.90;;;;;;4986944;28;20051;-68
2021/05/22 04:56:37;;;;;;;7.47;2.35;;;10.50;99.90;;;;;;4986253;28;20078;-68
2021/05/22 04:59:04;;;;;;;7.43;1.75;;;10.60;99.90;;;;;;4986148;28;20105;-68
2021/05/22 05:01:31;;;;;;;5.15;1.67;;;10.60;99.90;;;;;;4985745;28;20047;-67
2021/05/22 05:04:05;;;;;;;6.10;2.13;;;10.60;99.90;;;;;;4985938;28;20106;-68
2021/05/22 05:06:31;;;;;;;5.15;1.98;;;10.50;99.90;;;;;;4985538;28;20046;-67
2021/05/22 05:08:57;;;;;;;4.18;1.60;;;10.50;99.90;;;;;;4988673;28;20053;-67
2021/05/22 05:11:23;;;;;;;6.40;2.10;;;10.60;99.90;;;;;;4989544;28;20115;-67
2021/05/22 05:13:49;;;;;;;6.32;1.85;;;10.50;99.90;;;;;;4988106;28;20145;-67
2021/05/22 05:16:15;;;;;;;4.78;1.85;;;10.50;99.90;;;;;;4989594;28;20331;-66
2021/05/22 05:18:41;;;;;;;3.13;1.58;;;10.50;99.90;;;;;;4989178;28;20054;-67
2021/05/22 05:21:07;;;;;;;3.50;1.50;;;10.40;99.90;;;;;;4989432;28;20494;-67
2021/05/22 05:23:38;;;;;;;6.05;1.70;;;10.50;99.90;;;;;;4989490;28;20130;-67
2021/05/22 05:26:04;;;;;;;;;;;10.50;99.90;;;;;;4973522;28;20121;-67
2021/05/22 05:28:30;;;;;;;7.63;2.00;;;10.60;99.90;;;;;;4992669;28;19921;-67
2021/05/22 05:30:56;;;;;;;5.70;1.85;;;10.50;99.90;;;;;;4987672;28;20498;-67
2021/05/22 05:33:22;;;;;;;6.65;1.77;;;10.60;99.90;;;;;;4989330;28;20574;-67
2021/05/22 05:35:49;;;;;;;3.28;1.33;;;10.50;99.90;;;;;;4989269;28;20053;-68
2021/05/22 05:38:18;;;;;;;4.07;1.48;;;10.60;99.90;;;;;;4989003;28;20515;-68
2021/05/22 05:40:45;;;;;;;5.07;1.63;;;10.70;99.90;;;;;;4984599;28;20070;-68
2021/05/22 05:43:13;;;;;;;4.00;1.48;;;10.70;99.90;;;;;;4982543;28;20407;-67
2021/05/22 05:45:39;;;;;;;5.10;1.73;;;10.70;99.90;;;;;;4990071;28;20054;-67
2021/05/22 05:48:06;;;;;;;4.22;1.60;;;10.60;99.90;;;;;;4989126;28;20043;-67
2021/05/22 05:50:32;;;;;;;3.63;1.42;;;10.60;99.90;;;;;;4988864;28;20057;-68
2021/05/22 05:52:58;;;;;;;6.13;1.90;;;10.30;99.90;;;;;;4989146;28;20133;-67
2021/05/22 05:55:25;;;;;;;6.13;1.88;;;10.20;99.90;;;;;;4989018;28;20054;-67
2021/05/22 05:57:51;;;;;;;6.70;2.10;;;10.20;99.90;;;;;;4976022;28;20046;-68
2021/05/22 06:00:17;;;;;;;6.72;1.95;;;10.30;99.90;;;;;;4989402;28;20071;-67
2021/05/22 06:02:43;;;;;;;4.63;2.03;;;10.30;99.90;;;;;;4989522;28;20054;-67
2021/05/22 06:05:09;;;;;;;6.60;3.05;;;10.40;99.90;;;;;;4988978;28;20407;-68
2021/05/22 06:07:35;;;;;;;6.15;2.33;;;10.30;99.90;;;;;;4988514;28;20400;-67
2021/05/22 06:10:01;;;;;;;5.57;1.75;;;10.40;99.90;;;;;;4988766;28;20047;-67
2021/05/22 06:12:27;;;;;;;6.85;1.77;;;10.30;99.90;;;;;;4989111;28;20058;-67
2021/05/22 06:14:57;;;;;;;6.15;1.60;;;10.30;99.90;;;;;;4982318;28;20530;-67
2021/05/22 06:17:23;;;;;;;7.47;2.27;;;10.40;99.90;;;;;;4989203;28;20078;-67
2021/05/22 06:19:49;;;;;;;7.70;2.33;;;10.40;99.90;;;;;;4988086;28;20318;-67
2021/05/22 06:22:15;;;;;;;5.82;1.88;;;10.40;99.90;;;;;;4987975;28;20038;-67
2021/05/22 06:24:41;;;;;;;5.57;1.70;;;10.40;99.90;;;;;;4989223;28;20030;-67
2021/05/22 06:27:06;;;;;;;5.85;1.70;;;10.40;99.90;;;;;;4989224;28;20043;-68
2021/05/22 06:29:32;;;;;;;7.15;1.80;;;10.50;99.90;;;;;;4989592;28;20051;-67
2021/05/22 06:31:58;;;;;;;5.40;2.03;;;10.50;99.90;;;;;;4988596;28;20479;-67
2021/05/22 06:34:24;;;;;;;3.92;1.60;;;10.50;99.90;;;;;;4988135;28;20046;-67
2021/05/22 06:36:51;;;;;;;5.57;2.38;;;10.70;99.90;;;;;;4987797;28;20593;-67
2021/05/22 06:39:17;;;;;;;5.28;1.85;;;10.70;99.90;;;;;;4987943;28;20046;-67
2021/05/22 06:41:42;;;;;;;6.53;1.83;;;10.70;99.90;;;;;;4987934;28;20047;-68
2021/05/22 06:44:12;;;;;;;4.80;1.70;;;10.80;99.90;;;;;;4986617;28;20051;-68
2021/05/22 06:49:04;;;;;;;6.13;2.00;;;10.90;99.90;;;;;;4988021;28;20051;-67
2021/05/22 06:51:30;;;;;;;3.75;2.00;;;10.80;99.90;;;;;;4987716;28;20554;-67
2021/05/22 06:53:56;;;;;;;4.18;2.13;;;10.80;99.90;;;;;;4987583;28;20046;-66
2021/05/22 06:56:22;;;;;;;6.25;2.03;;;10.80;99.90;;;;;;4989022;28;20062;-67
2021/05/22 06:58:47;;;;;;;4.75;1.70;;;10.90;99.90;;;;;;4988706;28;20051;-67
2021/05/22 07:01:13;;;;;;;3.58;1.52;;;11.00;99.90;;;;;;4988816;28;20054;-68
2021/05/22 07:03:39;;;;;;;6.13;1.83;;;10.90;99.90;;;;;;4987556;28;20051;-67
2021/05/22 07:06:11;;;;;;;3.65;1.80;;;10.90;99.90;;;;;;4987451;28;20388;-67
2021/05/22 07:08:37;;;;;;;4.07;1.55;;;10.90;99.90;;;;;;4988440;28;20070;-67
2021/05/22 07:11:03;;;;;;;7.28;2.08;;;10.90;99.90;;;;;;4988141;28;20190;-67
2021/05/22 07:13:29;;;;;;;3.85;1.90;;;10.90;99.90;;;;;;4986642;28;20059;-67
2021/05/22 07:15:54;;;;;;;4.15;1.92;;;10.80;99.90;;;;;;4969992;28;20211;-67
2021/05/22 07:18:20;;;;;;;6.18;2.10;;;10.80;99.90;;;;;;4987133;28;20051;-67
2021/05/22 07:20:46;;;;;;;5.05;2.33;;;10.80;99.90;;;;;;4985950;28;20043;-68
2021/05/22 07:23:12;;;;;;;5.22;1.83;;;10.80;99.90;;;;;;4986695;28;20049;-68
2021/05/22 07:25:38;;;;;;;4.70;2.10;;;10.80;99.90;;;;;;4987617;28;20133;-67
2021/05/22 07:28:06;;;;;;;5.50;1.80;;;10.70;99.90;;;;;;4987857;28;20046;-67
2021/05/22 07:30:32;;;;;;;6.40;1.98;;;10.80;99.90;;;;;;4985475;28;20400;-67
2021/05/22 07:32:58;;;;;;;5.10;2.13;;;10.80;99.90;;;;;;4986871;28;20103;-67
2021/05/22 07:35:24;;;;;;;2.45;1.80;;;10.80;99.90;;;;;;4987095;28;20045;-67
2021/05/22 07:37:50;;;;;;;4.88;2.85;;;10.90;99.90;;;;;;4988150;28;20077;-68
2021/05/22 07:40:16;;;;;;;5.43;2.42;;;10.80;99.90;;;;;;4987760;28;20102;-67
2021/05/22 07:42:47;;;;;;;7.00;2.85;;;10.80;99.90;;;;;;4986932;28;20058;-67
2021/05/22 07:45:13;;;;;;;4.82;2.42;;;10.80;99.90;;;;;;4987513;28;20053;-67
2021/05/22 07:47:41;;;;;;;6.40;2.80;;;10.80;99.90;;;;;;4987917;28;20097;-67
2021/05/22 07:50:07;;;;;;;5.90;2.40;;;10.80;99.90;;;;;;4987241;28;20043;-66
2021/05/22 07:52:33;;;;;;;7.05;2.50;;;10.70;99.90;;;;;;4986776;28;20072;-67
2021/05/22 07:54:59;;;;;;;4.68;2.00;;;10.60;99.90;;;;;;4986478;28;20066;-66
2021/05/22 07:57:25;;;;;;;6.05;2.60;;;10.70;99.90;;;;;;4986524;28;20047;-67
2021/05/22 07:59:51;;;;;;;5.75;3.22;;;10.70;99.90;;;;;;4986573;28;20126;-66
2021/05/22 08:02:17;;;;;;;4.32;2.05;;;10.70;99.90;;;;;;4986654;28;20046;-66
2021/05/22 08:04:43;;;;;;;6.10;2.47;;;10.70;99.90;;;;;;4986347;28;20074;-67
2021/05/22 08:07:09;;;;;;;6.43;2.65;;;10.80;99.90;;;;;;4986593;28;20117;-67
2021/05/22 08:09:35;;;;;;;7.30;2.65;;;10.60;99.90;;;;;;4986614;28;20042;-67
2021/05/22 08:12:01;;;;;;;6.95;3.50;;;10.60;99.90;;;;;;4986812;28;20066;-67
2021/05/22 08:14:27;;;;;;;6.20;3.13;;;10.70;99.90;;;;;;4985596;28;20158;-67
2021/05/22 08:16:53;;;;;;;4.63;2.53;;;10.60;99.90;;;;;;4985328;28;20047;-68
2021/05/22 08:19:19;;;;;;;6.78;3.20;;;10.70;99.90;;;;;;4986039;28;20046;-66
2021/05/22 08:21:45;;;;;;;5.15;2.95;;;10.50;99.90;;;;;;4986419;28;20054;-66
2021/05/22 08:24:12;;;;;;;8.38;3.35;;;10.50;99.90;;;;;;4986883;28;20042;-66
2021/05/22 08:26:39;;;;;;;7.25;2.97;;;10.50;99.90;;;;;;4986476;28;20043;-66
2021/05/22 08:29:05;;;;;;;5.25;3.10;;;10.50;99.90;;;;;;4991387;28;20125;-66
2021/05/22 08:31:32;;;;;;;4.72;2.97;;;10.40;99.90;;;;;;4986550;28;20061;-66
2021/05/22 08:33:59;;;;;;;5.65;3.40;;;10.40;99.90;;;;;;4986669;28;20054;-65
2021/05/22 08:36:25;;;;;;;4.68;3.10;;;10.40;99.90;;;;;;4985958;28;20038;-66
2021/05/22 08:38:51;;;;;;;4.03;2.75;;;10.50;99.90;;;;;;4986034;28;20074;-67
2021/05/22 08:41:18;;;;;;;4.55;2.70;;;10.50;99.90;;;;;;4985776;28;20043;-65
2021/05/22 08:43:43;;;;;;;5.05;2.72;;;10.70;99.90;;;;;;4985656;28;20054;-70
2021/05/22 08:46:11;;;;;;;5.28;2.80;;;10.70;99.90;;;;;;4984903;28;20043;-66
2021/05/22 08:48:38;;;;;;;3.25;2.65;;;10.70;99.90;;;;;;4984427;28;20054;-68
2021/05/22 08:51:10;;;;;;;5.88;3.15;;;10.70;99.90;;;;;;4985416;28;20047;-65
2021/05/22 08:53:36;;;;;;;4.20;2.92;;;10.50;99.90;;;;;;4985809;28;20042;-66
2021/05/22 08:56:04;;;;;;;5.70;3.22;;;10.40;99.90;;;;;;4986879;28;20046;-66
2021/05/22 08:58:29;;;;;;;6.53;4.38;;;10.50;99.90;;;;;;4986351;28;20046;-65
2021/05/22 09:00:57;;;;;;;4.88;3.53;;;10.60;99.90;;;;;;4968408;28;20130;-66
2021/05/22 09:03:23;;;;;;;3.70;3.30;;;10.60;99.90;;;;;;4985421;28;20133;-67
2021/05/22 09:05:49;;;;;;;7.88;4.20;;;10.60;99.90;;;;;;4986350;28;20039;-67
2021/05/22 09:08:15;;;;;;;4.50;3.50;;;10.80;99.90;;;;;;4985583;28;20046;-66
2021/05/22 09:10:49;;;;;;;6.93;4.20;;;10.80;99.90;;;;;;4985863;28;20095;-67
2021/05/22 09:13:23;;;;;;;5.75;3.33;;;10.70;99.90;;;;;;4967889;28;20227;-67
2021/05/22 09:15:59;;;;;;;5.43;3.90;;;10.70;99.90;;;;;;4985611;28;20086;-67
2021/05/22 09:18:26;;;;;;;5.32;4.07;;;10.80;99.90;;;;;;4985024;28;20051;-72
2021/05/22 09:20:59;;;;;;;6.30;3.67;;;10.70;99.90;;;;;;4985874;28;20070;-72
2021/05/22 09:23:26;;;;;;;3.95;3.38;;;10.70;99.90;;;;;;4980158;28;20043;-78
2021/05/22 09:25:53;;;;;;;5.65;4.03;;;10.70;99.90;;;;;;4985360;28;20047;-70
2021/05/22 09:28:22;;;;;;;5.80;4.43;;;10.70;99.90;;;;;;4985574;28;20051;-67
2021/05/22 09:30:49;;;;;;;6.10;4.38;;;10.80;99.90;;;;;;4985408;28;20126;-69
2021/05/22 09:33:21;;;;;;;5.45;4.63;;;10.90;99.90;;;;;;4985647;28;20057;-69
2021/05/22 09:35:59;;;;;;;4.70;3.70;;;11.10;99.90;;;;;;4986090;28;20067;-68
2021/05/22 09:38:37;;;;;;;4.90;3.92;;;11.10;99.90;;;;;;4985925;28;20039;-69
2021/05/22 09:41:33;;;;;;;6.75;4.10;;;11.30;99.90;;;;;;4985170;28;20047;-69
2021/05/22 09:44:25;;;;;;;5.35;4.30;;;11.30;99.90;;;;;;4964089;28;20066;-68
2021/05/22 09:46:50;;;;;;;5.45;4.88;;;11.40;99.90;;;;;;4986035;28;20043;-72
2021/05/22 09:49:20;;;;;;;5.00;4.55;;;11.40;99.90;;;;;;4985708;28;20039;-71
2021/05/22 09:52:08;;;;;;;4.88;4.43;;;11.50;99.90;;;;;;4985151;28;20039;-69
2021/05/22 09:54:54;;;;;;;4.68;4.28;;;11.60;99.90;;;;;;4987711;28;20177;-70
2021/05/22 09:57:41;;;;;;;4.88;4.32;;;11.60;99.90;;;;;;4989194;28;20058;-69
2021/05/22 10:00:15;;;;;;;6.03;4.85;;;11.60;99.90;;;;;;4989489;28;20450;-68
2021/05/22 10:02:46;;;;;;;5.75;4.65;;;11.70;99.90;;;;;;4950502;28;20069;-69
2021/05/22 10:05:22;;;;;;;4.32;3.78;;;11.80;99.90;;;;;;4968457;28;20054;-69
2021/05/22 10:07:51;;;;;;;5.55;4.60;;;11.70;99.90;;;;;;4970176;28;20070;-69
2021/05/22 10:10:18;;;;;;;4.88;4.18;;;11.60;99.90;;;;;;4982448;28;20149;-70
2021/05/22 10:12:45;;;;;;;5.35;4.85;;;11.80;99.90;;;;;;4972428;28;20065;-68
2021/05/22 10:15:16;;;;;;;5.18;4.68;;;11.70;99.90;;;;;;4971354;28;20064;-68
2021/05/22 10:17:43;;;;;;;5.38;4.47;;;11.80;99.90;;;;;;4981479;28;20051;-69
2021/05/22 10:20:11;;;;;;;4.25;3.85;;;11.80;99.90;;;;;;4957757;28;20245;-68
2021/05/22 10:22:39;;;;;;;4.57;4.18;;;11.90;99.90;;;;;;4980886;28;20106;-68
2021/05/22 10:25:06;;;;;;;4.95;4.22;;;12.00;99.90;;;;;;4970181;28;20151;-68
2021/05/22 10:27:34;;;;;;;5.88;4.75;;;11.90;99.90;;;;;;4983243;28;20039;-68
2021/05/22 10:30:02;;;;;;;6.82;4.18;;;12.00;99.90;;;;;;4970505;28;20051;-68
2021/05/22 10:32:28;;;;;;;5.53;5.03;;;12.10;99.90;;;;;;4982293;28;20054;-68
2021/05/22 10:34:54;;;;;;;5.35;4.68;;;12.10;99.90;;;;;;4965687;28;20047;-71
2021/05/22 10:37:36;;;;;;;5.18;4.68;;;12.00;99.90;;;;;;4975901;28;20039;-69
2021/05/22 10:40:03;;;;;;;4.95;4.35;;;11.90;99.90;;;;;;4959265;28;20566;-71
2021/05/22 10:42:29;;;;;;;4.80;4.35;;;11.90;99.90;;;;;;4964779;28;20078;-69
2021/05/22 10:44:56;;;;;;;6.10;4.70;;;11.90;99.90;;;;;;4973059;28;20318;-71
2021/05/22 10:47:26;;;;;;;5.20;3.80;;;12.00;99.90;;;;;;4981927;28;20085;-68
2021/05/22 10:49:56;;;;;;;;;;;12.00;99.90;;;;;;4967116;28;20050;-70
2021/05/22 10:52:26;;;;;;;5.90;4.30;;;11.90;99.90;;;;;;4981855;28;19937;-71
2021/05/22 10:55:07;;;;;;;;;;;12.00;99.90;;;;;;4979560;28;20066;-67
2021/05/22 10:57:57;;;;;;;5.30;4.47;;;11.90;99.90;;;;;;4981159;28;20080;-68
2021/05/22 11:00:26;;;;;;;5.60;4.95;;;11.80;99.90;;;;;;4961812;28;20055;-67
2021/05/22 11:02:58;;;;;;;5.15;4.40;;;11.80;99.90;;;;;;4953704;28;20511;-67
2021/05/22 11:05:26;;;;;;;6.20;4.82;;;11.90;99.90;;;;;;4969699;28;20110;-67
2021/05/22 11:08:04;;;;;;;5.65;4.95;;;12.00;99.90;;;;;;4982246;28;20077;-67
2021/05/22 11:10:41;;;;;;;5.70;5.00;;;12.20;99.90;;;;;;4969986;28;20043;-69
2021/05/22 11:13:11;;;;;;;6.22;5.63;;;12.20;99.90;;;;;;4981730;28;20038;-68
2021/05/22 11:15:41;;;;;;;6.68;4.85;;;12.30;99.90;;;;;;4963351;28;20140;-68
2021/05/22 11:18:08;;;;;;;5.70;5.03;;;12.40;99.90;;;;;;4981346;28;20038;-68
2021/05/22 11:20:35;;;;;;;7.07;5.30;;;12.20;99.90;;;;;;4963803;28;20063;-68
2021/05/22 11:23:02;;;;;;;6.28;5.00;;;12.30;99.90;;;;;;4974922;28;20036;-68
2021/05/22 11:25:51;;;;;;;4.50;4.10;;;12.20;99.90;;;;;;4964187;28;20052;-74
2021/05/22 11:28:20;;;;;;;4.55;4.15;;;12.20;99.90;;;;;;4976840;28;20063;-72
2021/05/22 11:30:59;;;;;;;8.77;4.57;;;12.20;99.90;;;;;;4969386;28;20054;-72
2021/05/22 11:33:29;;;;;;;5.13;4.23;;;12.10;99.90;;;;;;4977181;28;20051;-72
2021/05/22 11:35:57;;;;;;;5.18;4.68;;;12.00;99.90;;;;;;4960471;28;20051;-72
2021/05/22 11:38:23;;;;;;;6.97;5.40;;;12.10;99.90;;;;;;4981042;28;20046;-71
2021/05/22 11:40:52;;;;;;;6.15;5.40;;;12.30;99.90;;;;;;4970832;28;20051;-70
2021/05/22 11:43:21;;;;;;;6.60;5.43;;;12.50;99.90;;;;;;4978445;28;20105;-70
2021/05/22 11:45:53;;;;;;;9.25;5.15;;;12.70;99.90;;;;;;4968903;28;20077;-70
2021/05/22 11:48:31;;;;;;;5.13;4.63;;;13.00;99.90;;;;;;4979972;28;20042;-70
2021/05/22 11:50:56;;;;;;;5.25;4.75;;;13.30;99.90;;;;;;4951184;28;20145;-69
2021/05/22 11:53:26;;;;;;;6.03;5.18;;;13.40;99.90;;;;;;4980116;28;20035;-69
2021/05/22 11:56:02;;;;;;;6.22;4.20;;;13.60;99.90;;;;;;4969273;28;20052;-69
2021/05/22 11:58:28;;;;;;;5.78;4.03;;;13.90;99.90;;;;;;4981692;28;20210;-69
2021/05/22 12:00:55;;;;;;;5.45;3.67;;;14.20;99.90;;;;;;4968672;28;20046;-68
2021/05/22 12:03:25;;;;;;;4.95;2.83;;;14.00;99.90;;;;;;4968139;28;20054;-68
2021/05/22 12:05:52;;;;;;;7.53;3.20;;;13.60;99.90;;;;;;4962708;28;20051;-68
2021/05/22 12:08:21;;;;;;;3.50;2.28;;;13.40;99.90;;;;;;4972681;28;20757;-67
2021/05/22 12:10:48;;;;;;;4.10;2.70;;;13.30;99.90;;;;;;4963595;28;20123;-67
2021/05/22 12:13:14;;;;;;;2.90;2.67;;;13.20;99.90;;;;;;4971996;28;20038;-68
2021/05/22 12:15:42;;;;;;;3.63;2.00;;;13.20;99.90;;;;;;4962485;28;20058;-69
2021/05/22 12:18:09;;;;;;;2.80;2.10;;;13.30;99.90;;;;;;4978696;28;20070;-68
2021/05/22 12:20:50;;;;;;;4.78;1.80;;;13.70;99.90;;;;;;4969248;28;20057;-68
2021/05/22 12:23:26;;;;;;;4.57;2.13;;;14.10;99.90;;;;;;4970551;28;20059;-68
2021/05/22 12:25:54;;;;;;;4.05;1.95;;;14.40;99.90;;;;;;4968301;28;20557;-68
2021/05/22 12:28:20;;;;;;;3.10;1.80;;;14.40;99.90;;;;;;4981304;28;20054;-67
2021/05/22 12:30:47;;;;;;;4.32;1.52;;;14.20;99.90;;;;;;4969545;28;20063;-71
2021/05/22 12:33:18;;;;;;;4.60;1.90;;;14.10;99.90;;;;;;4978841;28;20050;-72
2021/05/22 12:35:48;;;;;;;4.20;2.20;;;13.90;99.90;;;;;;4965462;28;20085;-71
2021/05/22 12:38:14;;;;;;;;;;;13.60;99.90;;;;;;4980952;28;20085;-72
2021/05/22 12:40:45;;;;;;;3.22;1.80;;;13.50;99.90;;;;;;4961908;28;19929;-72
2021/05/22 12:43:12;;;;;;;4.28;1.92;;;13.50;99.90;;;;;;4968650;28;20126;-72
2021/05/22 12:45:41;;;;;;;4.95;1.60;;;13.60;99.90;;;;;;4947870;28;20078;-71
2021/05/22 12:48:20;;;;;;;2.95;1.92;;;13.60;99.90;;;;;;4961768;28;20094;-71
2021/05/22 12:50:46;;;;;;;3.22;1.98;;;13.30;99.90;;;;;;4955559;28;20103;-71
2021/05/22 12:53:12;;;;;;;4.80;2.05;;;13.20;99.90;;;;;;4967148;28;20063;-72
2021/05/22 12:55:39;;;;;;;5.88;2.42;;;13.00;99.90;;;;;;4955057;28;20051;-74